sensor_id;sensor_type;location;lat;lon;timestamp;P1;durP1;ratioP1;P2;durP2;ratioP2
64037;SDS011;54641;50.168;8.492;2023-07-09T00:00:30;6.20;;;4.50;;
64037;SDS011;54641;50.168;8.492;2023-07-09T00:03:00;8.00;;;4.90;;
64037;SDS011;54641;50.168;8.492;2023-07-09T00:05:30;8.60;;;4.90;;
64037;SDS011;54641;50.168;8.492;2023-07-09T00:08:01;8.80;;;4.70;;
64037;SDS011;54641;50.168;8.492;2023-07-09T00:10:32;7.90;;;5.00;;
64037;SDS011;54641;50.168;8.492;2023-07-09T00:13:03;8.80;;;4.30;;
64037;SDS011;54641;50.168;8.492;2023-07-09T00:15:33;9.40;;;4.90;;
64037;SDS011;54641;50.168;8.492;2023-07-09T00:18:03;6.30;;;4.30;;
64037;SDS011;54641;50.168;8.492;2023-07-09T00:20:34;8.40;;;5.00;;
64037;SDS011;54641;50.168;8.492;2023-07-09T00:23:05;8.20;;;4.80;;
64037;SDS011;54641;50.168;8.492;2023-07-09T00:25:35;9.20;;;4.20;;
64037;SDS011;54641;50.168;8.492;2023-07-09T00:28:07;6.90;;;4.20;;
64037;SDS011;54641;50.168;8.492;2023-07-09T00:30:39;6.80;;;4.20;;
64037;SDS011;54641;50.168;8.492;2023-07-09T00:33:11;7.50;;;4.60;;
64037;SDS011;54641;50.168;8.492;2023-07-09T00:35:43;6.90;;;4.30;;
64037;SDS011;54641;50.168;8.492;2023-07-09T00:38:17;6.30;;;4.30;;
64037;SDS011;54641;50.168;8.492;2023-07-09T00:41:01;6.80;;;4.50;;
64037;SDS011;54641;50.168;8.492;2023-07-09T00:43:39;7.60;;;3.80;;
64037;SDS011;54641;50.168;8.492;2023-07-09T00:46:12;8.20;;;4.10;;
64037;SDS011;54641;50.168;8.492;2023-07-09T00:48:45;6.70;;;4.00;;
64037;SDS011;54641;50.168;8.492;2023-07-09T00:51:19;6.90;;;4.00;;
64037;SDS011;54641;50.168;8.492;2023-07-09T00:53:52;7.90;;;4.40;;
64037;SDS011;54641;50.168;8.492;2023-07-09T00:56:27;9.20;;;4.80;;
64037;SDS011;54641;50.168;8.492;2023-07-09T00:59:00;6.20;;;3.60;;
64037;SDS011;54641;50.168;8.492;2023-07-09T01:01:33;6.50;;;3.90;;
64037;SDS011;54641;50.168;8.492;2023-07-09T01:04:05;6.50;;;4.00;;
64037;SDS011;54641;50.168;8.492;2023-07-09T01:06:36;6.30;;;3.80;;
64037;SDS011;54641;50.168;8.492;2023-07-09T01:09:07;7.20;;;4.00;;
64037;SDS011;54641;50.168;8.492;2023-07-09T01:11:38;6.70;;;3.90;;
64037;SDS011;54641;50.168;8.492;2023-07-09T01:14:09;8.50;;;4.20;;
64037;SDS011;54641;50.168;8.492;2023-07-09T01:16:43;8.00;;;3.90;;
64037;SDS011;54641;50.168;8.492;2023-07-09T01:19:17;7.70;;;3.40;;
64037;SDS011;54641;50.168;8.492;2023-07-09T01:21:52;6.10;;;3.90;;
64037;SDS011;54641;50.168;8.492;2023-07-09T01:27:21;7.00;;;3.80;;
64037;SDS011;54641;50.168;8.492;2023-07-09T01:29:55;6.90;;;3.80;;
64037;SDS011;54641;50.168;8.492;2023-07-09T01:32:27;8.70;;;4.10;;
64037;SDS011;54641;50.168;8.492;2023-07-09T01:34:58;11.90;;;3.90;;
64037;SDS011;54641;50.168;8.492;2023-07-09T01:37:33;6.50;;;4.00;;
64037;SDS011;54641;50.168;8.492;2023-07-09T01:40:06;12.20;;;4.30;;
64037;SDS011;54641;50.168;8.492;2023-07-09T01:42:57;6.40;;;3.60;;
64037;SDS011;54641;50.168;8.492;2023-07-09T01:45:28;7.40;;;3.70;;
64037;SDS011;54641;50.168;8.492;2023-07-09T01:48:00;7.00;;;3.60;;
64037;SDS011;54641;50.168;8.492;2023-07-09T01:50:31;7.70;;;4.10;;
64037;SDS011;54641;50.168;8.492;2023-07-09T01:53:02;7.10;;;3.80;;
64037;SDS011;54641;50.168;8.492;2023-07-09T01:55:32;8.40;;;3.90;;
64037;SDS011;54641;50.168;8.492;2023-07-09T01:58:02;7.90;;;4.10;;
64037;SDS011;54641;50.168;8.492;2023-07-09T02:00:34;5.80;;;3.70;;
64037;SDS011;54641;50.168;8.492;2023-07-09T02:03:05;6.90;;;3.60;;
64037;SDS011;54641;50.168;8.492;2023-07-09T02:05:36;8.10;;;4.00;;
64037;SDS011;54641;50.168;8.492;2023-07-09T02:08:07;6.00;;;3.70;;
64037;SDS011;54641;50.168;8.492;2023-07-09T02:10:37;7.90;;;3.60;;
64037;SDS011;54641;50.168;8.492;2023-07-09T02:13:07;7.50;;;3.70;;
64037;SDS011;54641;50.168;8.492;2023-07-09T02:15:37;6.00;;;3.80;;
64037;SDS011;54641;50.168;8.492;2023-07-09T02:18:11;6.30;;;3.60;;
64037;SDS011;54641;50.168;8.492;2023-07-09T02:20:42;6.30;;;3.90;;
64037;SDS011;54641;50.168;8.492;2023-07-09T02:23:12;5.20;;;3.40;;
64037;SDS011;54641;50.168;8.492;2023-07-09T02:25:42;6.10;;;3.40;;
64037;SDS011;54641;50.168;8.492;2023-07-09T02:28:13;7.40;;;4.10;;
64037;SDS011;54641;50.168;8.492;2023-07-09T02:30:43;7.50;;;3.80;;
64037;SDS011;54641;50.168;8.492;2023-07-09T02:33:13;7.80;;;4.00;;
64037;SDS011;54641;50.168;8.492;2023-07-09T02:35:43;9.00;;;4.30;;
64037;SDS011;54641;50.168;8.492;2023-07-09T02:38:15;6.70;;;3.80;;
64037;SDS011;54641;50.168;8.492;2023-07-09T02:40:47;7.50;;;4.10;;
64037;SDS011;54641;50.168;8.492;2023-07-09T02:43:17;8.20;;;3.90;;
64037;SDS011;54641;50.168;8.492;2023-07-09T02:45:48;7.70;;;3.90;;
64037;SDS011;54641;50.168;8.492;2023-07-09T02:48:18;8.10;;;4.20;;
64037;SDS011;54641;50.168;8.492;2023-07-09T02:50:49;8.40;;;4.10;;
64037;SDS011;54641;50.168;8.492;2023-07-09T02:53:19;6.60;;;3.90;;
64037;SDS011;54641;50.168;8.492;2023-07-09T02:55:50;9.40;;;4.10;;
64037;SDS011;54641;50.168;8.492;2023-07-09T02:58:21;7.10;;;4.40;;
64037;SDS011;54641;50.168;8.492;2023-07-09T03:00:52;8.00;;;4.20;;
64037;SDS011;54641;50.168;8.492;2023-07-09T03:03:22;5.60;;;4.10;;
64037;SDS011;54641;50.168;8.492;2023-07-09T03:05:52;8.30;;;4.20;;
64037;SDS011;54641;50.168;8.492;2023-07-09T03:08:22;6.50;;;4.10;;
64037;SDS011;54641;50.168;8.492;2023-07-09T03:10:53;8.20;;;4.40;;
64037;SDS011;54641;50.168;8.492;2023-07-09T03:13:23;9.30;;;4.10;;
64037;SDS011;54641;50.168;8.492;2023-07-09T03:15:57;8.10;;;4.00;;
64037;SDS011;54641;50.168;8.492;2023-07-09T03:18:28;6.60;;;4.00;;
64037;SDS011;54641;50.168;8.492;2023-07-09T03:20:59;7.00;;;4.70;;
64037;SDS011;54641;50.168;8.492;2023-07-09T03:23:29;8.20;;;4.60;;
64037;SDS011;54641;50.168;8.492;2023-07-09T03:26:00;5.50;;;4.00;;
64037;SDS011;54641;50.168;8.492;2023-07-09T03:28:33;8.70;;;4.60;;
64037;SDS011;54641;50.168;8.492;2023-07-09T03:31:04;8.10;;;4.30;;
64037;SDS011;54641;50.168;8.492;2023-07-09T03:33:34;7.60;;;4.30;;
64037;SDS011;54641;50.168;8.492;2023-07-09T03:36:05;9.90;;;4.60;;
64037;SDS011;54641;50.168;8.492;2023-07-09T03:38:35;8.00;;;4.20;;
64037;SDS011;54641;50.168;8.492;2023-07-09T03:41:05;7.10;;;4.90;;
64037;SDS011;54641;50.168;8.492;2023-07-09T03:43:36;7.20;;;3.70;;
64037;SDS011;54641;50.168;8.492;2023-07-09T03:46:06;7.50;;;4.50;;
64037;SDS011;54641;50.168;8.492;2023-07-09T03:48:37;6.70;;;4.50;;
64037;SDS011;54641;50.168;8.492;2023-07-09T03:51:07;9.10;;;4.90;;
64037;SDS011;54641;50.168;8.492;2023-07-09T03:53:38;7.80;;;4.40;;
64037;SDS011;54641;50.168;8.492;2023-07-09T03:56:08;7.40;;;4.30;;
64037;SDS011;54641;50.168;8.492;2023-07-09T03:58:38;8.40;;;4.10;;
64037;SDS011;54641;50.168;8.492;2023-07-09T04:01:08;7.90;;;4.30;;
64037;SDS011;54641;50.168;8.492;2023-07-09T04:03:39;8.60;;;4.40;;
64037;SDS011;54641;50.168;8.492;2023-07-09T04:06:09;8.00;;;4.50;;
64037;SDS011;54641;50.168;8.492;2023-07-09T04:08:40;5.80;;;3.90;;
64037;SDS011;54641;50.168;8.492;2023-07-09T04:11:10;7.00;;;4.40;;
64037;SDS011;54641;50.168;8.492;2023-07-09T04:13:40;9.20;;;4.20;;
64037;SDS011;54641;50.168;8.492;2023-07-09T04:16:10;7.80;;;3.80;;
64037;SDS011;54641;50.168;8.492;2023-07-09T04:18:41;7.60;;;4.50;;
64037;SDS011;54641;50.168;8.492;2023-07-09T04:21:11;8.00;;;4.00;;
64037;SDS011;54641;50.168;8.492;2023-07-09T04:23:41;9.20;;;5.10;;
64037;SDS011;54641;50.168;8.492;2023-07-09T04:26:12;6.90;;;4.40;;
64037;SDS011;54641;50.168;8.492;2023-07-09T04:28:43;8.70;;;4.40;;
64037;SDS011;54641;50.168;8.492;2023-07-09T04:31:13;14.50;;;4.50;;
64037;SDS011;54641;50.168;8.492;2023-07-09T04:33:43;7.90;;;4.10;;
64037;SDS011;54641;50.168;8.492;2023-07-09T04:36:14;9.20;;;4.80;;
64037;SDS011;54641;50.168;8.492;2023-07-09T04:38:44;7.50;;;4.70;;
64037;SDS011;54641;50.168;8.492;2023-07-09T04:41:14;8.50;;;4.40;;
64037;SDS011;54641;50.168;8.492;2023-07-09T04:43:44;10.00;;;4.30;;
64037;SDS011;54641;50.168;8.492;2023-07-09T04:46:14;9.70;;;4.80;;
64037;SDS011;54641;50.168;8.492;2023-07-09T04:48:45;10.60;;;4.80;;
64037;SDS011;54641;50.168;8.492;2023-07-09T04:51:15;8.00;;;4.30;;
64037;SDS011;54641;50.168;8.492;2023-07-09T04:53:45;7.70;;;5.00;;
64037;SDS011;54641;50.168;8.492;2023-07-09T04:56:19;8.60;;;4.50;;
64037;SDS011;54641;50.168;8.492;2023-07-09T04:58:50;7.70;;;4.40;;
64037;SDS011;54641;50.168;8.492;2023-07-09T05:01:20;8.40;;;4.90;;
64037;SDS011;54641;50.168;8.492;2023-07-09T05:03:50;8.10;;;4.60;;
64037;SDS011;54641;50.168;8.492;2023-07-09T05:06:21;7.80;;;4.50;;
64037;SDS011;54641;50.168;8.492;2023-07-09T05:08:51;8.60;;;4.50;;
64037;SDS011;54641;50.168;8.492;2023-07-09T05:11:21;7.80;;;4.50;;
64037;SDS011;54641;50.168;8.492;2023-07-09T05:13:52;8.20;;;4.90;;
64037;SDS011;54641;50.168;8.492;2023-07-09T05:16:22;8.30;;;5.30;;
64037;SDS011;54641;50.168;8.492;2023-07-09T05:18:53;8.10;;;4.70;;
64037;SDS011;54641;50.168;8.492;2023-07-09T05:21:23;7.30;;;4.00;;
64037;SDS011;54641;50.168;8.492;2023-07-09T05:23:54;6.90;;;4.50;;
64037;SDS011;54641;50.168;8.492;2023-07-09T05:26:24;8.60;;;4.50;;
64037;SDS011;54641;50.168;8.492;2023-07-09T05:28:54;6.90;;;4.50;;
64037;SDS011;54641;50.168;8.492;2023-07-09T05:31:25;6.00;;;4.00;;
64037;SDS011;54641;50.168;8.492;2023-07-09T05:33:55;7.80;;;4.40;;
64037;SDS011;54641;50.168;8.492;2023-07-09T05:36:27;7.20;;;5.10;;
64037;SDS011;54641;50.168;8.492;2023-07-09T05:38:58;8.60;;;5.00;;
64037;SDS011;54641;50.168;8.492;2023-07-09T05:41:28;9.00;;;5.10;;
64037;SDS011;54641;50.168;8.492;2023-07-09T05:43:58;6.90;;;4.90;;
64037;SDS011;54641;50.168;8.492;2023-07-09T05:46:33;8.60;;;4.40;;
64037;SDS011;54641;50.168;8.492;2023-07-09T05:49:05;6.10;;;4.10;;
64037;SDS011;54641;50.168;8.492;2023-07-09T05:51:35;6.50;;;4.40;;
64037;SDS011;54641;50.168;8.492;2023-07-09T05:54:06;7.40;;;5.00;;
64037;SDS011;54641;50.168;8.492;2023-07-09T05:56:36;10.80;;;5.10;;
64037;SDS011;54641;50.168;8.492;2023-07-09T05:59:07;7.30;;;4.60;;
64037;SDS011;54641;50.168;8.492;2023-07-09T06:01:37;8.80;;;5.20;;
64037;SDS011;54641;50.168;8.492;2023-07-09T06:04:07;7.30;;;4.90;;
64037;SDS011;54641;50.168;8.492;2023-07-09T06:06:39;7.10;;;4.60;;
64037;SDS011;54641;50.168;8.492;2023-07-09T06:09:10;6.50;;;4.40;;
64037;SDS011;54641;50.168;8.492;2023-07-09T06:11:40;8.10;;;4.70;;
64037;SDS011;54641;50.168;8.492;2023-07-09T06:14:11;11.30;;;5.20;;
64037;SDS011;54641;50.168;8.492;2023-07-09T06:16:41;9.20;;;5.00;;
64037;SDS011;54641;50.168;8.492;2023-07-09T06:19:12;6.80;;;4.60;;
64037;SDS011;54641;50.168;8.492;2023-07-09T06:21:42;7.20;;;4.50;;
64037;SDS011;54641;50.168;8.492;2023-07-09T06:24:12;7.20;;;4.90;;
64037;SDS011;54641;50.168;8.492;2023-07-09T06:26:43;7.70;;;5.20;;
64037;SDS011;54641;50.168;8.492;2023-07-09T06:29:13;6.40;;;4.70;;
64037;SDS011;54641;50.168;8.492;2023-07-09T06:31:43;8.80;;;5.60;;
64037;SDS011;54641;50.168;8.492;2023-07-09T06:34:14;7.40;;;5.10;;
64037;SDS011;54641;50.168;8.492;2023-07-09T06:36:44;7.30;;;5.60;;
64037;SDS011;54641;50.168;8.492;2023-07-09T06:39:15;8.40;;;5.40;;
64037;SDS011;54641;50.168;8.492;2023-07-09T06:41:47;9.40;;;5.40;;
64037;SDS011;54641;50.168;8.492;2023-07-09T06:44:35;8.10;;;5.10;;
64037;SDS011;54641;50.168;8.492;2023-07-09T06:47:05;8.10;;;5.40;;
64037;SDS011;54641;50.168;8.492;2023-07-09T06:49:36;7.60;;;5.50;;
64037;SDS011;54641;50.168;8.492;2023-07-09T06:52:06;11.60;;;5.50;;
64037;SDS011;54641;50.168;8.492;2023-07-09T06:54:37;8.00;;;5.80;;
64037;SDS011;54641;50.168;8.492;2023-07-09T06:57:07;8.10;;;5.10;;
64037;SDS011;54641;50.168;8.492;2023-07-09T06:59:38;8.40;;;5.60;;
64037;SDS011;54641;50.168;8.492;2023-07-09T07:02:08;7.50;;;4.90;;
64037;SDS011;54641;50.168;8.492;2023-07-09T07:04:39;7.60;;;5.50;;
64037;SDS011;54641;50.168;8.492;2023-07-09T07:07:09;7.50;;;5.70;;
64037;SDS011;54641;50.168;8.492;2023-07-09T07:09:40;6.60;;;5.60;;
64037;SDS011;54641;50.168;8.492;2023-07-09T07:12:12;8.50;;;5.40;;
64037;SDS011;54641;50.168;8.492;2023-07-09T07:14:48;7.80;;;5.90;;
64037;SDS011;54641;50.168;8.492;2023-07-09T07:17:18;8.20;;;6.00;;
64037;SDS011;54641;50.168;8.492;2023-07-09T07:19:49;9.30;;;6.00;;
64037;SDS011;54641;50.168;8.492;2023-07-09T07:22:20;10.30;;;6.30;;
64037;SDS011;54641;50.168;8.492;2023-07-09T07:24:50;9.80;;;6.40;;
64037;SDS011;54641;50.168;8.492;2023-07-09T07:27:20;8.10;;;5.90;;
64037;SDS011;54641;50.168;8.492;2023-07-09T07:29:51;8.50;;;6.60;;
64037;SDS011;54641;50.168;8.492;2023-07-09T07:32:22;10.00;;;6.00;;
64037;SDS011;54641;50.168;8.492;2023-07-09T07:34:52;7.60;;;5.90;;
64037;SDS011;54641;50.168;8.492;2023-07-09T07:37:22;8.50;;;5.80;;
64037;SDS011;54641;50.168;8.492;2023-07-09T07:39:52;6.90;;;5.70;;
64037;SDS011;54641;50.168;8.492;2023-07-09T07:42:23;9.60;;;6.10;;
64037;SDS011;54641;50.168;8.492;2023-07-09T07:44:54;8.20;;;5.80;;
64037;SDS011;54641;50.168;8.492;2023-07-09T07:47:24;8.40;;;5.90;;
64037;SDS011;54641;50.168;8.492;2023-07-09T07:49:55;8.20;;;5.80;;
64037;SDS011;54641;50.168;8.492;2023-07-09T07:52:27;7.90;;;5.90;;
64037;SDS011;54641;50.168;8.492;2023-07-09T07:54:58;7.90;;;5.40;;
64037;SDS011;54641;50.168;8.492;2023-07-09T07:57:28;7.50;;;5.50;;
64037;SDS011;54641;50.168;8.492;2023-07-09T07:59:58;7.60;;;5.60;;
64037;SDS011;54641;50.168;8.492;2023-07-09T08:02:38;7.50;;;5.80;;
64037;SDS011;54641;50.168;8.492;2023-07-09T08:05:09;11.00;;;5.40;;
64037;SDS011;54641;50.168;8.492;2023-07-09T08:07:39;9.20;;;6.10;;
64037;SDS011;54641;50.168;8.492;2023-07-09T08:10:10;7.20;;;5.90;;
64037;SDS011;54641;50.168;8.492;2023-07-09T08:12:43;9.30;;;6.50;;
64037;SDS011;54641;50.168;8.492;2023-07-09T08:15:13;9.30;;;6.60;;
64037;SDS011;54641;50.168;8.492;2023-07-09T08:17:45;8.50;;;5.90;;
64037;SDS011;54641;50.168;8.492;2023-07-09T08:20:15;9.00;;;5.80;;
64037;SDS011;54641;50.168;8.492;2023-07-09T08:22:46;11.10;;;6.30;;
64037;SDS011;54641;50.168;8.492;2023-07-09T08:25:16;7.90;;;5.80;;
64037;SDS011;54641;50.168;8.492;2023-07-09T08:27:46;9.30;;;5.60;;
64037;SDS011;54641;50.168;8.492;2023-07-09T08:30:17;8.80;;;5.90;;
64037;SDS011;54641;50.168;8.492;2023-07-09T08:32:47;9.70;;;5.40;;
64037;SDS011;54641;50.168;8.492;2023-07-09T08:35:17;9.00;;;5.30;;
64037;SDS011;54641;50.168;8.492;2023-07-09T08:37:50;7.80;;;5.90;;
64037;SDS011;54641;50.168;8.492;2023-07-09T08:40:21;7.20;;;4.90;;
64037;SDS011;54641;50.168;8.492;2023-07-09T08:42:52;8.80;;;5.70;;
64037;SDS011;54641;50.168;8.492;2023-07-09T08:45:31;9.10;;;5.80;;
64037;SDS011;54641;50.168;8.492;2023-07-09T08:48:08;7.50;;;5.80;;
64037;SDS011;54641;50.168;8.492;2023-07-09T08:50:41;11.20;;;5.90;;
64037;SDS011;54641;50.168;8.492;2023-07-09T08:53:16;10.10;;;6.00;;
64037;SDS011;54641;50.168;8.492;2023-07-09T08:55:50;9.10;;;6.10;;
64037;SDS011;54641;50.168;8.492;2023-07-09T08:58:21;9.50;;;5.80;;
64037;SDS011;54641;50.168;8.492;2023-07-09T09:00:54;9.50;;;5.90;;
64037;SDS011;54641;50.168;8.492;2023-07-09T09:03:31;11.90;;;6.30;;
64037;SDS011;54641;50.168;8.492;2023-07-09T09:06:11;9.20;;;5.80;;
64037;SDS011;54641;50.168;8.492;2023-07-09T09:08:44;9.30;;;6.50;;
64037;SDS011;54641;50.168;8.492;2023-07-09T09:11:20;9.00;;;6.10;;
64037;SDS011;54641;50.168;8.492;2023-07-09T09:13:55;12.50;;;6.90;;
64037;SDS011;54641;50.168;8.492;2023-07-09T09:16:28;10.60;;;6.90;;
64037;SDS011;54641;50.168;8.492;2023-07-09T09:21:29;8.40;;;6.20;;
64037;SDS011;54641;50.168;8.492;2023-07-09T09:24:09;11.20;;;6.90;;
64037;SDS011;54641;50.168;8.492;2023-07-09T09:26:43;11.10;;;7.20;;
64037;SDS011;54641;50.168;8.492;2023-07-09T09:29:14;10.50;;;5.90;;
64037;SDS011;54641;50.168;8.492;2023-07-09T09:31:45;9.20;;;6.40;;
64037;SDS011;54641;50.168;8.492;2023-07-09T09:34:24;12.50;;;6.60;;
64037;SDS011;54641;50.168;8.492;2023-07-09T09:36:56;10.10;;;6.30;;
64037;SDS011;54641;50.168;8.492;2023-07-09T09:39:28;10.20;;;6.00;;
64037;SDS011;54641;50.168;8.492;2023-07-09T09:41:58;8.30;;;6.10;;
64037;SDS011;54641;50.168;8.492;2023-07-09T09:44:28;10.00;;;5.90;;
64037;SDS011;54641;50.168;8.492;2023-07-09T09:47:00;8.40;;;6.30;;
64037;SDS011;54641;50.168;8.492;2023-07-09T09:49:30;8.50;;;6.20;;
64037;SDS011;54641;50.168;8.492;2023-07-09T09:52:11;8.90;;;6.60;;
64037;SDS011;54641;50.168;8.492;2023-07-09T09:54:46;8.60;;;6.10;;
64037;SDS011;54641;50.168;8.492;2023-07-09T09:57:21;10.90;;;6.50;;
64037;SDS011;54641;50.168;8.492;2023-07-09T09:59:53;10.30;;;6.20;;
64037;SDS011;54641;50.168;8.492;2023-07-09T10:02:25;9.50;;;6.60;;
64037;SDS011;54641;50.168;8.492;2023-07-09T10:04:57;9.70;;;6.90;;
64037;SDS011;54641;50.168;8.492;2023-07-09T10:07:29;9.00;;;6.00;;
64037;SDS011;54641;50.168;8.492;2023-07-09T10:10:01;8.50;;;6.60;;
64037;SDS011;54641;50.168;8.492;2023-07-09T10:12:34;8.70;;;5.90;;
64037;SDS011;54641;50.168;8.492;2023-07-09T10:15:23;10.80;;;6.20;;
64037;SDS011;54641;50.168;8.492;2023-07-09T10:18:00;8.00;;;6.20;;
64037;SDS011;54641;50.168;8.492;2023-07-09T10:20:34;10.30;;;6.70;;
64037;SDS011;54641;50.168;8.492;2023-07-09T10:23:12;10.70;;;6.60;;
64037;SDS011;54641;50.168;8.492;2023-07-09T10:25:52;10.30;;;6.30;;
64037;SDS011;54641;50.168;8.492;2023-07-09T10:28:35;8.30;;;6.80;;
64037;SDS011;54641;50.168;8.492;2023-07-09T10:31:26;9.20;;;7.10;;
64037;SDS011;54641;50.168;8.492;2023-07-09T10:34:06;8.60;;;6.30;;
64037;SDS011;54641;50.168;8.492;2023-07-09T10:37:04;9.50;;;6.40;;
64037;SDS011;54641;50.168;8.492;2023-07-09T10:39:46;9.10;;;7.10;;
64037;SDS011;54641;50.168;8.492;2023-07-09T10:42:20;8.60;;;7.40;;
64037;SDS011;54641;50.168;8.492;2023-07-09T10:44:55;8.60;;;6.50;;
64037;SDS011;54641;50.168;8.492;2023-07-09T10:47:27;11.70;;;7.30;;
64037;SDS011;54641;50.168;8.492;2023-07-09T10:49:59;9.70;;;6.50;;
64037;SDS011;54641;50.168;8.492;2023-07-09T10:52:32;8.40;;;7.00;;
64037;SDS011;54641;50.168;8.492;2023-07-09T10:55:08;8.10;;;6.10;;
64037;SDS011;54641;50.168;8.492;2023-07-09T10:57:44;11.10;;;7.50;;
64037;SDS011;54641;50.168;8.492;2023-07-09T11:00:32;8.50;;;6.60;;
64037;SDS011;54641;50.168;8.492;2023-07-09T11:03:13;10.90;;;6.70;;
64037;SDS011;54641;50.168;8.492;2023-07-09T11:05:53;10.60;;;6.40;;
64037;SDS011;54641;50.168;8.492;2023-07-09T11:08:24;9.30;;;5.70;;
64037;SDS011;54641;50.168;8.492;2023-07-09T11:10:59;8.80;;;6.60;;
64037;SDS011;54641;50.168;8.492;2023-07-09T11:13:33;9.20;;;6.80;;
64037;SDS011;54641;50.168;8.492;2023-07-09T11:16:20;8.30;;;7.30;;
64037;SDS011;54641;50.168;8.492;2023-07-09T11:18:58;9.40;;;6.60;;
64037;SDS011;54641;50.168;8.492;2023-07-09T11:21:30;8.30;;;5.90;;
64037;SDS011;54641;50.168;8.492;2023-07-09T11:24:04;7.80;;;6.40;;
64037;SDS011;54641;50.168;8.492;2023-07-09T11:26:48;9.70;;;6.10;;
64037;SDS011;54641;50.168;8.492;2023-07-09T11:29:23;7.70;;;6.20;;
64037;SDS011;54641;50.168;8.492;2023-07-09T11:31:53;7.70;;;6.10;;
64037;SDS011;54641;50.168;8.492;2023-07-09T11:34:28;10.60;;;7.10;;
64037;SDS011;54641;50.168;8.492;2023-07-09T11:36:59;9.40;;;6.30;;
64037;SDS011;54641;50.168;8.492;2023-07-09T11:39:30;8.30;;;6.30;;
64037;SDS011;54641;50.168;8.492;2023-07-09T11:42:24;8.80;;;6.70;;
64037;SDS011;54641;50.168;8.492;2023-07-09T11:44:58;8.70;;;6.20;;
64037;SDS011;54641;50.168;8.492;2023-07-09T11:47:39;7.30;;;5.40;;
64037;SDS011;54641;50.168;8.492;2023-07-09T11:50:15;10.50;;;6.20;;
64037;SDS011;54641;50.168;8.492;2023-07-09T11:55:27;9.60;;;5.50;;
64037;SDS011;54641;50.168;8.492;2023-07-09T11:58:01;8.90;;;6.10;;
64037;SDS011;54641;50.168;8.492;2023-07-09T12:00:37;9.90;;;6.40;;
64037;SDS011;54641;50.168;8.492;2023-07-09T12:03:11;7.10;;;5.80;;
64037;SDS011;54641;50.168;8.492;2023-07-09T12:05:46;9.00;;;6.00;;
64037;SDS011;54641;50.168;8.492;2023-07-09T12:08:19;8.90;;;6.00;;
64037;SDS011;54641;50.168;8.492;2023-07-09T12:11:17;8.10;;;5.70;;
64037;SDS011;54641;50.168;8.492;2023-07-09T12:13:49;6.50;;;5.40;;
64037;SDS011;54641;50.168;8.492;2023-07-09T12:16:21;7.30;;;5.30;;
64037;SDS011;54641;50.168;8.492;2023-07-09T12:18:53;8.80;;;5.60;;
64037;SDS011;54641;50.168;8.492;2023-07-09T12:21:23;10.40;;;5.70;;
64037;SDS011;54641;50.168;8.492;2023-07-09T12:23:55;8.80;;;5.90;;
64037;SDS011;54641;50.168;8.492;2023-07-09T12:26:25;8.90;;;5.90;;
64037;SDS011;54641;50.168;8.492;2023-07-09T12:28:57;9.00;;;5.60;;
64037;SDS011;54641;50.168;8.492;2023-07-09T12:31:29;7.80;;;5.90;;
64037;SDS011;54641;50.168;8.492;2023-07-09T12:34:00;9.20;;;6.10;;
64037;SDS011;54641;50.168;8.492;2023-07-09T12:36:31;10.10;;;6.30;;
64037;SDS011;54641;50.168;8.492;2023-07-09T12:39:02;8.10;;;6.10;;
64037;SDS011;54641;50.168;8.492;2023-07-09T12:41:35;11.00;;;5.70;;
64037;SDS011;54641;50.168;8.492;2023-07-09T12:44:09;10.10;;;6.00;;
64037;SDS011;54641;50.168;8.492;2023-07-09T12:46:45;6.50;;;5.80;;
64037;SDS011;54641;50.168;8.492;2023-07-09T12:49:21;7.50;;;5.50;;
64037;SDS011;54641;50.168;8.492;2023-07-09T12:51:53;7.30;;;6.20;;
64037;SDS011;54641;50.168;8.492;2023-07-09T12:54:24;9.20;;;6.20;;
64037;SDS011;54641;50.168;8.492;2023-07-09T12:56:56;9.10;;;5.50;;
64037;SDS011;54641;50.168;8.492;2023-07-09T12:59:36;8.00;;;5.60;;
64037;SDS011;54641;50.168;8.492;2023-07-09T13:02:16;6.90;;;5.40;;
64037;SDS011;54641;50.168;8.492;2023-07-09T13:04:48;9.40;;;6.80;;
64037;SDS011;54641;50.168;8.492;2023-07-09T13:07:25;8.70;;;6.30;;
64037;SDS011;54641;50.168;8.492;2023-07-09T13:10:03;7.30;;;5.80;;
64037;SDS011;54641;50.168;8.492;2023-07-09T13:12:38;8.60;;;5.90;;
64037;SDS011;54641;50.168;8.492;2023-07-09T13:15:20;9.50;;;6.60;;
64037;SDS011;54641;50.168;8.492;2023-07-09T13:17:57;8.00;;;6.20;;
64037;SDS011;54641;50.168;8.492;2023-07-09T13:20:29;9.30;;;6.30;;
64037;SDS011;54641;50.168;8.492;2023-07-09T13:23:00;7.00;;;6.00;;
64037;SDS011;54641;50.168;8.492;2023-07-09T13:25:33;8.80;;;6.20;;
64037;SDS011;54641;50.168;8.492;2023-07-09T13:28:18;10.40;;;6.90;;
64037;SDS011;54641;50.168;8.492;2023-07-09T13:30:51;9.10;;;6.40;;
64037;SDS011;54641;50.168;8.492;2023-07-09T13:33:22;10.20;;;6.00;;
64037;SDS011;54641;50.168;8.492;2023-07-09T13:35:52;10.20;;;5.70;;
64037;SDS011;54641;50.168;8.492;2023-07-09T13:38:23;11.00;;;6.30;;
64037;SDS011;54641;50.168;8.492;2023-07-09T13:40:54;8.10;;;6.00;;
64037;SDS011;54641;50.168;8.492;2023-07-09T13:43:28;8.70;;;5.60;;
64037;SDS011;54641;50.168;8.492;2023-07-09T13:45:59;9.50;;;6.00;;
64037;SDS011;54641;50.168;8.492;2023-07-09T13:48:32;7.90;;;6.00;;
64037;SDS011;54641;50.168;8.492;2023-07-09T13:51:05;7.80;;;5.40;;
64037;SDS011;54641;50.168;8.492;2023-07-09T13:53:43;7.40;;;6.50;;
64037;SDS011;54641;50.168;8.492;2023-07-09T13:56:13;8.50;;;5.70;;
64037;SDS011;54641;50.168;8.492;2023-07-09T14:01:13;9.50;;;5.80;;
64037;SDS011;54641;50.168;8.492;2023-07-09T14:03:44;7.90;;;5.70;;
64037;SDS011;54641;50.168;8.492;2023-07-09T14:08:46;9.20;;;5.60;;
64037;SDS011;54641;50.168;8.492;2023-07-09T14:11:16;9.60;;;6.00;;
64037;SDS011;54641;50.168;8.492;2023-07-09T14:13:47;10.20;;;5.80;;
64037;SDS011;54641;50.168;8.492;2023-07-09T14:16:17;7.70;;;5.80;;
64037;SDS011;54641;50.168;8.492;2023-07-09T14:18:47;8.90;;;5.90;;
64037;SDS011;54641;50.168;8.492;2023-07-09T14:21:18;6.70;;;5.80;;
64037;SDS011;54641;50.168;8.492;2023-07-09T14:23:51;9.80;;;5.90;;
64037;SDS011;54641;50.168;8.492;2023-07-09T14:28:51;8.50;;;5.90;;
64037;SDS011;54641;50.168;8.492;2023-07-09T14:31:24;9.20;;;6.40;;
64037;SDS011;54641;50.168;8.492;2023-07-09T14:33:57;9.40;;;6.10;;
64037;SDS011;54641;50.168;8.492;2023-07-09T14:36:42;11.60;;;6.50;;
64037;SDS011;54641;50.168;8.492;2023-07-09T14:39:13;10.00;;;6.40;;
64037;SDS011;54641;50.168;8.492;2023-07-09T14:41:43;9.30;;;5.80;;
64037;SDS011;54641;50.168;8.492;2023-07-09T14:44:20;12.70;;;5.90;;
64037;SDS011;54641;50.168;8.492;2023-07-09T14:46:58;7.70;;;5.70;;
64037;SDS011;54641;50.168;8.492;2023-07-09T14:49:29;9.00;;;5.50;;
64037;SDS011;54641;50.168;8.492;2023-07-09T14:52:00;11.70;;;6.30;;
64037;SDS011;54641;50.168;8.492;2023-07-09T14:54:30;10.30;;;6.00;;
64037;SDS011;54641;50.168;8.492;2023-07-09T14:57:00;13.30;;;6.40;;
64037;SDS011;54641;50.168;8.492;2023-07-09T14:59:32;10.30;;;6.20;;
64037;SDS011;54641;50.168;8.492;2023-07-09T15:02:09;9.30;;;5.80;;
64037;SDS011;54641;50.168;8.492;2023-07-09T15:04:50;9.00;;;6.30;;
64037;SDS011;54641;50.168;8.492;2023-07-09T15:07:20;11.40;;;6.30;;
64037;SDS011;54641;50.168;8.492;2023-07-09T15:09:50;11.50;;;6.70;;
64037;SDS011;54641;50.168;8.492;2023-07-09T15:12:22;8.60;;;6.50;;
64037;SDS011;54641;50.168;8.492;2023-07-09T15:14:58;8.60;;;6.80;;
64037;SDS011;54641;50.168;8.492;2023-07-09T15:17:35;10.50;;;6.60;;
64037;SDS011;54641;50.168;8.492;2023-07-09T15:20:07;11.50;;;6.90;;
64037;SDS011;54641;50.168;8.492;2023-07-09T15:22:43;12.50;;;6.40;;
64037;SDS011;54641;50.168;8.492;2023-07-09T15:25:14;10.50;;;6.20;;
64037;SDS011;54641;50.168;8.492;2023-07-09T15:27:46;11.50;;;7.00;;
64037;SDS011;54641;50.168;8.492;2023-07-09T15:30:18;9.30;;;6.60;;
64037;SDS011;54641;50.168;8.492;2023-07-09T15:32:50;9.30;;;6.60;;